M I D A S
Marine Information and Data Acquisition System
Tripno 250 of the Zeeleeuw from 2002-04-25 07:43:40 to 2002-04-25 11:15:19
Back to CruiseResearch ActivitiesStationsMapUnderway DataData graphs

EquipmentUnitsComment
TimeDGPSUTC
LatitudeDGPSDM.mWGS84
LongitudeDGPSDM.mWGS84
TemperatureSBE03/SBE38deg celciusITS90
ConductivitySBE21S/mITS90
SalinitySBE21 Practical Salinity Units
ChlorophylAChelsea fluorimeterg/lCalibrated in Aceton
Missing or incorrect values are displayed as -999
Sea surface data collected by the RV Zeeleeuw from 2002-04-25 07:43:40 to 2002-04-25 11:15:19
Time Latitude Longitude Temperature Conductivity Salinity ChlorophylA
2002-04-25 07:44:46 51°13.692 2°55.862 -999 0.023249 0.114764  
2002-04-25 07:45:46 51°13.697 2°55.782 46.838289 0.023249 0.114806  
2002-04-25 07:46:45 51°13.69 2°55.722 45.01078 0.023249 0.114832  
2002-04-25 07:47:45 51°13.737 2°55.722 41.553486 0.023249 0.114839  
2002-04-25 07:48:45 51°13.795 2°55.654 41.822901 0.023249 0.114871  
2002-04-25 07:49:46 51°13.859 2°55.602 40.521035 0.023249 0.114882  
2002-04-25 07:50:45 51°13.915 2°55.576 38.195645 0.023249 0.114903  
2002-04-25 07:51:45 51°13.975 2°55.545 37.348126 0.023249 0.114931  
2002-04-25 07:52:45 51°14.022 2°55.516 35.568078 0.023249 0.11496  
2002-04-25 07:53:46 51°14.087 2°55.466 17.533366 0.023249 0.115024  
2002-04-25 07:54:45 51°14.153 2°55.413 12.935623 3.023839 24.102135  
2002-04-25 07:55:45 51°14.213 2°55.348 12.790521 2.959284 24.266934  
2002-04-25 07:56:46 51°14.269 2°55.272 12.994992 2.907538 23.904495  
2002-04-25 07:57:45 51°14.324 2°55.167 12.509029 2.920851 24.103624  
2002-04-25 07:58:45 51°14.397 2°55.029 12.445158 2.937767 24.318009  
2002-04-25 07:59:45 51°14.514 2°54.858 12.352993 3.046381 25.396234  
2002-04-25 08:00:45 51°14.65 2°54.68 12.081544 3.292512 27.792869  
2002-04-25 08:01:45 51°14.813 2°54.665 11.920671 3.433346 29.234443  
2002-04-25 08:02:45 51°14.985 2°54.719 12.270306 3.467608 29.623236  
2002-04-25 08:03:45 51°15.156 2°54.783 12.217634 3.473819 29.700801  
2002-04-25 08:04:45 51°15.324 2°54.858 11.931011 3.474521 29.731191  
2002-04-25 08:05:45 51°15.484 2°54.973 11.789127 3.479531 29.828931  
2002-04-25 08:06:45 51°15.617 2°55.157 11.742419 3.482236 29.883623  
2002-04-25 08:07:45 51°15.748 2°55.341 12.210922 3.487947 29.967707  
2002-04-25 08:08:45 51°15.88 2°55.523 12.281769 3.490652 30.007435  
2002-04-25 08:09:45 51°16.001 2°55.724 11.848708 3.487647 29.980039  
2002-04-25 08:10:45 51°16.131 2°55.913 11.969302 3.48404 29.940586  
2002-04-25 08:11:45 51°16.271 2°56.137 12.017032 3.481936 29.911051  
2002-04-25 08:12:45 51°16.381 2°56.438 11.913839 3.482637 29.906365  
2002-04-25 08:13:45 51°16.454 2°56.717 11.705002 3.483338 29.921258  
2002-04-25 08:14:45 51°16.49 2°56.856 11.843372 3.480834 29.906235  
2002-04-25 08:15:45 51°16.526 2°56.914 11.942259 3.479331 29.876135  
2002-04-25 08:16:45 51°16.586 2°56.968 12.003931 3.477527 29.836914  
2002-04-25 08:17:45 51°16.713 2°57.182 12.001338 3.477527 29.824333  
2002-04-25 08:18:45 51°16.866 2°57.421 11.98919 3.47893 29.847115  
2002-04-25 08:19:45 51°16.984 2°57.714 11.917483 3.476526 29.819832  
2002-04-25 08:20:45 51°17.117 2°57.994 11.780683 3.479431 29.849994  
2002-04-25 08:21:45 51°17.22 2°58.303 11.808658 3.477226 29.787564  
2002-04-25 08:22:45 51°17.315 2°58.621 11.842506 3.473018 29.718804  
2002-04-25 08:23:45 51°17.41 2°58.94 11.897573 3.47422 29.708346  
2002-04-25 08:24:45 51°17.503 2°59.255 11.858511 3.471415 29.669897  
2002-04-25 08:25:45 51°17.596 2°59.571 11.853906 3.470914 29.667642  
2002-04-25 08:26:45 51°17.702 2°59.879 11.839678 3.469612 29.660903  
2002-04-25 08:27:45 51°17.793 3°0.202 11.782874 3.465905 29.636347  
2002-04-25 08:28:45 51°17.878 3°0.528 11.789218 3.463602 29.659388  
2002-04-25 08:29:45 51°17.958 3°0.858 11.609466 3.460296 29.638603  
2002-04-25 08:30:45 51°18.034 3°1.189 11.612624 3.449378 29.674334  
2002-04-25 08:31:45 51°18.111 3°1.453 11.628822 3.450179 29.646197  
2002-04-25 08:32:45 51°18.164 3°1.585 11.580719 3.450179 29.65435  
2002-04-25 08:33:45 51°18.186 3°1.675 11.525479 3.445672 29.649651  
2002-04-25 08:34:45 51°18.197 3°1.749 11.48991 3.441866 29.651025  
2002-04-25 08:35:45 51°18.199 3°1.781 11.505176 3.437959 29.642639  
2002-04-25 08:36:45 51°18.201 3°1.815 11.472164 3.435856 29.638895  
2002-04-25 08:37:45 51°18.206 3°1.853 11.452211 3.433852 29.617215  
2002-04-25 08:38:45 51°18.213 3°1.893 11.422845 3.431348 29.615925  
2002-04-25 08:39:45 51°18.223 3°1.933 11.404209 3.428443 29.603868  
2002-04-25 08:40:45 51°18.234 3°1.971 11.432712 3.427241 29.606853  
2002-04-25 08:41:45 51°18.248 3°2.005 11.390114 3.426039 29.599752  
2002-04-25 08:42:45 51°18.265 3°2.036 11.38621 3.425038 29.597091  
2002-04-25 08:43:45 51°18.288 3°2.067 11.376337 3.424537 29.596705  
2002-04-25 08:44:45 51°18.319 3°2.109 11.381526 3.424337 29.596678  
2002-04-25 08:45:45 51°18.35 3°2.167 11.369815 3.424537 29.599228  
2002-04-25 08:46:45 51°18.371 3°2.226 11.357917 3.423736 29.604797  
2002-04-25 08:47:45 51°18.392 3°2.276 11.351531 3.423135 29.603453  
2002-04-25 08:48:45 51°18.411 3°2.315 11.342985 3.422534 29.604634  
2002-04-25 08:49:45 51°18.428 3°2.346 11.337516 3.421532 29.600079  
2002-04-25 08:50:45 51°18.45 3°2.371 11.339217 3.421332 29.602578  
2002-04-25 08:51:45 51°18.537 3°2.389 11.348177 3.421031 29.597801  
2002-04-25 08:52:45 51°18.701 3°2.508 11.328003 3.421632 29.599145  
2002-04-25 08:53:45 51°18.875 3°2.662 11.312374 3.425239 29.652711  
2002-04-25 08:54:45 51°19.045 3°2.851 11.316328 3.428445 29.695526  
2002-04-25 08:55:45 51°19.214 3°3.073 11.307409 3.429647 29.699459  
2002-04-25 08:56:45 51°19.389 3°3.274 11.294811 3.430448 29.718575  
2002-04-25 08:57:45 51°19.556 3°3.475 11.288602 3.433654 29.75509  
2002-04-25 08:58:45 51°19.651 3°3.563 11.294167 3.434455 29.765334  
2002-04-25 08:59:45 51°19.702 3°3.605 11.30934 3.435056 29.766022  
2002-04-25 09:00:45 51°19.711 3°3.636 11.281198 3.435657 29.76671  
2002-04-25 09:01:45 51°19.718 3°3.667 11.298765 3.433654 29.763993  
2002-04-25 09:02:45 51°19.724 3°3.7 11.362419 3.435056 29.757758  
2002-04-25 09:03:45 51°19.728 3°3.734 11.294765 3.436459 29.766144  
2002-04-25 09:04:45 51°19.734 3°3.768 11.299501 3.434555 29.763117  
2002-04-25 09:05:45 51°19.738 3°3.803 11.310444 3.435056 29.7603  
2002-04-25 09:06:45 51°19.742 3°3.84 11.306903 3.438161 29.761531  
2002-04-25 09:07:45 51°19.747 3°3.877 11.313662 3.435958 29.762604  
2002-04-25 09:08:45 51°19.752 3°3.914 11.321017 3.436158 29.761987  
2002-04-25 09:09:45 51°19.759 3°3.951 11.332829 3.436559 29.758846  
2002-04-25 09:10:45 51°19.768 3°3.989 11.383409 3.43766 29.757358  
2002-04-25 09:11:45 51°19.778 3°4.028 11.36591 3.440665 29.75954  
2002-04-25 09:12:45 51°19.788 3°4.068 11.350245 3.439864 29.761369  
2002-04-25 09:13:44 51°19.852 3°4.092 11.322579 3.439764 29.759139  
2002-04-25 09:14:45 51°20.005 3°4.053 11.293707 3.436559 29.763293  
2002-04-25 09:15:45 51°20.173 3°4.034 11.286533 3.435657 29.771161  
2002-04-25 09:16:44 51°20.335 3°4.002 11.288786 3.434956 29.770147  
2002-04-25 09:17:44 51°20.484 3°3.898 11.27485 3.435457 29.778779  
2002-04-25 09:18:44 51°20.557 3°3.792 11.26427 3.438563 29.816914  
2002-04-25 09:19:45 51°20.591 3°3.778 11.295822 3.440065 29.837742  
2002-04-25 09:20:45 51°20.62 3°3.797 11.261878 3.440066 29.842209  
2002-04-25 09:21:45 51°20.648 3°3.825 11.257553 3.440566 29.848304  
2002-04-25 09:22:45 51°20.685 3°3.854 11.264546 3.440566 29.849581  
2002-04-25 09:23:45 51°20.74 3°3.895 11.263764 3.441268 29.850581  
2002-04-25 09:24:45 51°20.789 3°3.981 11.258151 3.441769 29.857315  
2002-04-25 09:25:45 51°20.817 3°4.081 11.260681 3.440266 29.849243  
2002-04-25 09:26:44 51°20.829 3°4.172 11.259163 3.442069 29.864677  
2002-04-25 09:27:45 51°20.83 3°4.255 11.252077 3.442169 29.866918  
2002-04-25 09:28:45 51°20.823 3°4.326 11.264316 3.442069 29.86851  
2002-04-25 09:29:45 51°20.811 3°4.389 11.260681 3.441769 29.857953  
2002-04-25 09:30:46 51°20.796 3°4.445 11.266156 3.441769 29.856676  
2002-04-25 09:31:45 51°20.78 3°4.488 11.268962 3.442269 29.857025  
2002-04-25 09:32:45 51°20.76 3°4.518 11.268824 3.441869 29.853809  
2002-04-25 09:33:45 51°20.742 3°4.527 11.271446 3.439064 29.823005  
2002-04-25 09:34:45 51°20.729 3°4.485 11.274988 3.436259 29.796034  
2002-04-25 09:35:45 51°20.706 3°4.438 11.27485 3.441568 29.847727  
2002-04-25 09:36:45 51°20.691 3°4.392 11.271768 3.442169 29.851594  
2002-04-25 09:37:45 51°20.666 3°4.352 11.263948 3.441368 29.850268  
2002-04-25 09:38:46 51°20.642 3°4.312 11.270388 3.441167 29.848341  
2002-04-25 09:39:45 51°20.638 3°4.265 11.271538 3.441568 29.846451  
2002-04-25 09:40:45 51°20.633 3°4.219 11.272136 3.441468 29.846764  
2002-04-25 09:41:45 51°20.612 3°4.181 11.266478 3.441568 29.847727  
2002-04-25 09:42:45 51°20.592 3°4.142 11.269606 3.441368 29.848991  
2002-04-25 09:43:45 51°20.574 3°4.1 11.263672 3.441167 29.847064  
2002-04-25 09:44:45 51°20.555 3°4.058 11.259715 3.440566 29.847666  
2002-04-25 09:45:45 51°20.541 3°4.013 11.268502 3.440466 29.846063  
2002-04-25 09:46:45 51°20.547 3°3.966 11.281474 3.439464 29.831961  
2002-04-25 09:47:45 51°20.572 3°3.943 11.267628 3.440266 29.83329  
2002-04-25 09:48:46 51°20.608 3°3.96 11.269652 3.438363 29.823913  
2002-04-25 09:49:45 51°20.665 3°3.993 11.270112 3.439865 29.834539  
2002-04-25 09:50:45 51°20.726 3°4.052 11.305478 3.441969 29.856688  
2002-04-25 09:51:45 51°20.771 3°4.119 11.273608 3.443271 29.870493  
2002-04-25 09:52:45 51°20.806 3°4.187 11.270526 3.444674 29.876319  
2002-04-25 09:53:45 51°20.835 3°4.255 11.270526 3.44287 29.862168  
2002-04-25 09:54:45 51°20.861 3°4.322 11.270802 3.44247 29.858952  
2002-04-25 09:55:45 51°20.905 3°4.448 11.268318 3.443972 29.872129  
2002-04-25 09:56:46 51°20.84 3°4.587 11.2668 3.445575 29.886908  
2002-04-25 09:57:45 51°20.73 3°4.542 11.2645 3.444573 29.881744  
2002-04-25 09:58:45 51°20.606 3°4.371 11.278162 3.441468 29.854424  
2002-04-25 09:59:45 51°20.473 3°4.18 11.281566 3.439765 29.824647  
2002-04-25 10:00:45 51°20.335 3°3.99 11.31003 3.438563 29.807355  
2002-04-25 10:01:45 51°20.202 3°3.784 11.294213 3.437961 29.785029  
2002-04-25 10:02:45 51°20.061 3°3.583 11.3018 3.434455 29.759611  
2002-04-25 10:03:45 51°19.925 3°3.375 11.321017 3.433654 29.745557  
2002-04-25 10:04:46 51°19.8 3°3.153 11.343352 3.431149 29.705641  
2002-04-25 10:05:45 51°19.679 3°2.941 11.35856 3.434355 29.718655  
2002-04-25 10:06:46 51°19.558 3°2.714 11.35608 3.434655 29.710765  
2002-04-25 10:07:46 51°19.416 3°2.524 11.36049 3.430748 29.676459  
2002-04-25 10:08:46 51°19.255 3°2.367 11.373765 3.427442 29.639068  
2002-04-25 10:09:45 51°19.107 3°2.192 11.378449 3.42624 29.619966  
2002-04-25 10:10:46 51°18.951 3°2.015 11.404209 3.42604 29.617414  
2002-04-25 10:11:46 51°18.796 3°1.841 11.494449 3.433552 29.659727  
2002-04-25 10:12:46 51°18.641 3°1.667 11.680228 3.443369 29.671045  
2002-04-25 10:13:46 51°18.488 3°1.491 11.829325 3.459195 29.683791  
2002-04-25 10:14:46 51°18.344 3°1.295 11.825128 3.477126 29.752785  
2002-04-25 10:15:46 51°18.201 3°1.095 11.844558 3.481834 29.796853  
2002-04-25 10:16:46 51°18.06 3°0.892 11.826223 3.483537 29.829331  
2002-04-25 10:17:46 51°17.933 3°0.669 11.770548 3.48474 29.856457  
2002-04-25 10:18:46 51°17.808 3°0.447 11.759773 3.484139 29.862061  
2002-04-25 10:19:46 51°17.686 3°0.223 11.744703 3.482236 29.848994  
2002-04-25 10:20:45 51°17.579 2°59.985 11.720538 3.482336 29.865047  
2002-04-25 10:21:46 51°17.467 2°59.742 11.74863 3.481134 29.869982  
2002-04-25 10:22:46 51°17.356 2°59.503 11.712313 3.482036 29.884237  
2002-04-25 10:23:45 51°17.245 2°59.268 11.721863 3.481535 29.873796  
2002-04-25 10:24:46 51°17.133 2°59.023 11.721132 3.480733 29.866797  
2002-04-25 10:25:45 51°17.027 2°58.779 11.717385 3.480733 29.868057  
2002-04-25 10:26:46 51°16.92 2°58.521 11.725152 3.481435 29.873472  
2002-04-25 10:27:45 51°16.819 2°58.274 11.741003 3.482236 29.87732  
2002-04-25 10:28:46 51°16.714 2°58.016 11.740135 3.482436 29.869148  
2002-04-25 10:29:46 51°16.61 2°57.76 11.733558 3.483438 29.88057  
2002-04-25 10:30:46 51°16.506 2°57.504 11.752238 3.484941 29.899283  
2002-04-25 10:31:46 51°16.403 2°57.247 11.747763 3.486443 29.902867  
2002-04-25 10:32:46 51°16.301 2°56.991 11.726477 3.488247 29.918134  
2002-04-25 10:33:46 51°16.2 2°56.734 11.620678 3.49516 30.009221  
2002-04-25 10:34:46 51°16.098 2°56.476 11.527083 3.499469 30.132292  
2002-04-25 10:35:46 51°15.989 2°56.224 11.52557 3.496164 30.16456  
2002-04-25 10:36:46 51°15.872 2°55.982 11.498116 3.496665 30.177039  
2002-04-25 10:37:46 51°15.751 2°55.747 11.548295 3.496064 30.186018  
2002-04-25 10:38:46 51°15.632 2°55.509 11.545684 3.498368 30.198476  
2002-04-25 10:39:46 51°15.508 2°55.274 11.583787 3.500471 30.184033  
2002-04-25 10:40:46 51°15.351 2°55.171 11.691565 3.501473 30.173151  
2002-04-25 10:41:46 51°15.177 2°55.113 11.721132 3.498466 30.069904  
2002-04-25 10:42:45 51°15.008 2°55.062 11.788442 3.490852 29.965027  
2002-04-25 10:43:46 51°14.832 2°55.025 11.740272 3.492655 29.94998  
2002-04-25 10:44:46 51°14.655 2°54.992 11.745662 3.483839 29.885014  
2002-04-25 10:45:46 51°14.48 2°54.977 11.80373 3.476425 29.806937  
2002-04-25 10:46:46 51°14.334 2°55.137 11.954097 3.472618 29.728131  
2002-04-25 10:47:46 51°14.246 2°55.299 12.069864 3.368435 28.611215  
2002-04-25 10:48:44 51°14.164 2°55.382 12.232914 3.232323 27.256879  
2002-04-25 10:49:45 51°14.089 2°55.44 12.228199 3.115864 26.100779  
2002-04-25 10:50:44 51°14.024 2°55.49 12.192008 3.055892 25.524979  
2002-04-25 10:51:45 51°13.953 2°55.54 12.206931 3.0626 25.604353  
2002-04-25 10:52:45 51°13.883 2°55.595 12.238263 3.042977 25.414925  
2002-04-25 10:53:45 51°13.819 2°55.645 12.289017 3.033967 25.321918  
2002-04-25 10:54:45 51°13.77 2°55.698 12.45031 2.896431 23.987249  
2002-04-25 10:55:45 51°13.735 2°55.751 12.474255 2.796054 23.007572  
2002-04-25 10:56:44 51°13.708 2°55.8 12.372269 2.836983 23.395862  
2002-04-25 10:57:46 51°13.695 2°55.85 12.683615 2.802959 23.079129  
2002-04-25 10:58:45 51°13.689 2°55.891 12.351273 2.65568 21.631302  
2002-04-25 10:59:44 51°13.686 2°55.903 12.102806 2.969699 24.675184  
2002-04-25 11:00:45 51°13.687 2°55.906 12.224662 3.151211 26.479742  
2002-04-25 11:01:46 51°13.687 2°55.906 12.044136 3.103749 25.996289  
2002-04-25 11:02:45 51°13.687 2°55.907 12.077999 3.221107 27.178936  
2002-04-25 11:03:46 51°13.688 2°55.906 12.019216 3.208389 27.060306  
2002-04-25 11:04:45 51°13.689 2°55.906 11.953824 3.249549 27.473716  
2002-04-25 11:05:45 51°13.689 2°55.906 11.97267 3.277291 27.761168  
2002-04-25 11:06:45 51°13.689 2°55.905 11.965433 3.268878 27.67596  
2002-04-25 11:07:45 51°13.689 2°55.904 11.954598 3.265573 27.646159  
2002-04-25 11:08:45 51°13.689 2°55.904 11.970167 3.277391 27.767336  
2002-04-25 11:09:45 51°13.689 2°55.905 11.955099 3.268277 27.655292  
2002-04-25 11:10:45 51°13.689 2°55.905 12.017897 3.250751 27.493573  
2002-04-25 11:11:45 51°13.689 2°55.905 11.999336 3.233726 27.318937  
2002-04-25 11:12:46 51°13.689 2°55.905 12.013575 3.240836 27.39282  
2002-04-25 11:13:45 51°13.689 2°55.905 11.958286 3.240736 27.387306  
2002-04-25 11:14:45 51°13.689 2°55.906 13.001804 3.273986 27.734254